• Join FlightAware (Why Join?)
  • Login
  • US Flag 
06:26PM EST


 

Airport Tracker/Info


-or-


 

Live Flight TrackerFlight Track Log ✈ DAL3982 ✈ 23-Apr-2013 ✈ KATL - CYUL

Flight Track Log - Related Links

Times and Time Zones

All times are in EDT time to prevent confusion due to time zone crossing. See the DAL3982 flight status page for this flight to view local times or setup timezone preferences in your user account.

Time Position Orientation Groundspeed Altitude Reporting Facility
EDT Latitude Longitude Course Direction KTS MPH feet Rate Location/Type
09:15PM 33.6500 -84.3833 North 180 207 2,400  Level Atlanta TRACON
09:16PM 33.6667 -84.3000 76° East 261 300 4,200 1,980 Climbing Atlanta TRACON
09:17PM 33.6833 -84.2000 79° East 287 330 6,600 2,640 Climbing Atlanta TRACON
09:18PM 33.9229 -84.2562 320° Northwest  Level FlightAware Approximate
09:18PM 33.7500 -84.1833 12° North 289 333 9,500  Level Atlanta TRACON
09:19PM 34.0398 -84.2667 North  Level FlightAware Approximate
09:19PM 33.8333 -84.1833 360° North 331 381 10,300  Level Atlanta TRACON
09:20PM 34.1599 -84.2667 North  Level FlightAware Approximate
09:21PM 34.2800 -84.2667 North  Level FlightAware Approximate
09:21PM 34.0342 -84.2769 339° North 367 422 14,200  Level Atlanta Center
09:22PM 34.1447 -84.2797 359° North 372 428 16,200 1,800 Climbing Atlanta Center
09:23PM 34.2553 -84.2825 359° North 398 458 17,900 1,620 Climbing Atlanta Center
09:24PM 34.3681 -84.2628 North 403 464 19,500 1,500 Climbing Atlanta Center
09:25PM 34.4828 -84.2353 11° North 408 470 21,000 1,380 Climbing Atlanta Center
09:26PM 34.5997 -84.2103 10° North 418 481 22,300 1,140 Climbing Atlanta Center
09:27PM 34.7144 -84.1803 12° North 418 481 23,300 960 Climbing Atlanta Center
09:28PM 34.8397 -84.1525 10° North 432 497 24,300 960 Climbing Atlanta Center
09:29PM 34.9650 -84.1250 10° North 444 511 25,300 900 Climbing Atlanta Center
09:30PM 35.0922 -84.0947 11° North 456 525 26,200 780 Climbing Atlanta Center
09:31PM 35.2239 -84.0617 12° North 466 536 26,900 900 Climbing Atlanta Center
09:32PM 35.3572 -84.0311 11° North 476 548 28,000 1,200 Climbing Atlanta Center
09:33PM 35.4867 -83.9981 12° North 476 548 29,300 960 Climbing Atlanta Center
09:34PM 35.6161 -83.9647 12° North 476 548 30,000 660 Climbing Atlanta Center
09:35PM 35.7494 -83.9339 11° North 476 548 30,700 600 Climbing Atlanta Center
09:36PM 35.8831 -83.9003 12° North 481 554 31,300 600 Climbing Atlanta Center
09:37PM 36.0100 -83.8308 24° Northeast 493 567 32,000 660 Climbing Atlanta Center
09:38PM 36.1331 -83.7533 27° Northeast 493 567 32,700 600 Climbing Atlanta Center
09:41PM 36.4433 -83.5528 27° Northeast 492 566 34,300 540 Climbing Indianapolis Center
09:42PM 36.5500 -83.4853 27° Northeast 492 566 34,800 300 Climbing Indianapolis Center
09:43PM 36.6711 -83.4092 27° Northeast 483 556 35,000 60 Climbing Indianapolis Center
09:44PM 36.8122 -83.3175 27° Northeast 483 556 35,000  Level Indianapolis Center
09:45PM 36.9336 -83.2397 27° Northeast 484 557 35,000  Level Indianapolis Center
09:46PM 37.0547 -83.1611 27° Northeast 482 555 35,000  Level Indianapolis Center
09:47PM 37.1747 -83.0831 27° Northeast 480 552 35,000  Level Indianapolis Center
09:48PM 37.2919 -82.9939 31° Northeast 487 560 35,000  Level Indianapolis Center
09:49PM 37.4019 -82.8911 37° Northeast 489 563 35,000  Level Indianapolis Center
09:50PM 37.5133 -82.7889 36° Northeast 492 566 35,000  Level Indianapolis Center
09:51PM 37.6261 -82.6847 36° Northeast 498 573 35,000  Level Indianapolis Center
09:52PM 37.7367 -82.5811 37° Northeast 497 572 35,000  Level Indianapolis Center
09:53PM 37.8494 -82.4772 36° Northeast 500 575 35,000  Level Indianapolis Center
09:54PM 37.9619 -82.3733 36° Northeast 499 574 35,000  Level Indianapolis Center
09:55PM 38.0925 -82.2478 37° Northeast 501 577 35,000  Level Indianapolis Center
09:56PM 38.1886 -82.1583 36° Northeast 505 581 35,000  Level Indianapolis Center
09:57PM 38.3011 -82.0517 37° Northeast 504 580 35,000  Level Indianapolis Center
09:58PM 38.4339 -81.9242 37° Northeast 497 572 35,000  Level Indianapolis Center
09:59PM 38.5461 -81.8183 36° Northeast 500 575 35,000  Level Indianapolis Center
10:00PM 38.6589 -81.7119 36° Northeast 499 574 35,000  Level Indianapolis Center
10:01PM 38.7614 -81.6092 38° Northeast 494 568 35,000  Level Indianapolis Center
10:02PM 38.8892 -81.4881 36° Northeast 505 581 35,000  Level Indianapolis Center
10:03PM 39.0000 -81.3800 37° Northeast 497 572 35,000  Level Indianapolis Center
10:04PM 39.1103 -81.2719 37° Northeast 496 571 35,000  Level Indianapolis Center
10:05PM 39.2217 -81.1633 37° Northeast 500 575 35,000  Level Indianapolis Center
10:07PM 39.3311 -81.0550 37° Northeast 496 571 35,000  Level Indianapolis Center
10:08PM 39.4417 -80.9458 37° Northeast 497 572 35,000  Level Indianapolis Center
10:09PM 39.5519 -80.8372 37° Northeast 497 572 35,000  Level Indianapolis Center
10:09PM 39.6544 -80.7367 37° Northeast 507 583 35,000  Level Cleveland Center
10:10PM 39.7628 -80.6317 37° Northeast 502 578 35,000  Level Cleveland Center
10:11PM 39.8733 -80.5208 38° Northeast 502 578 35,000  Level Cleveland Center
10:12PM 39.9817 -80.4097 38° Northeast 502 578 35,000  Level Cleveland Center
10:13PM 40.0897 -80.3008 38° Northeast 490 564 35,000  Level Cleveland Center
10:14PM 40.2000 -80.1917 37° Northeast 490 564 35,000  Level Cleveland Center
10:15PM 40.3078 -80.0822 38° Northeast 496 571 35,000  Level Cleveland Center
10:16PM 40.4053 -79.9750 40° Northeast 490 564 35,000  Level Cleveland Center
10:17PM 40.5131 -79.8675 37° Northeast 495 570 35,000  Level Cleveland Center
10:18PM 40.6208 -79.7569 38° Northeast 495 570 35,000  Level Cleveland Center
10:19PM 40.7283 -79.6461 38° Northeast 490 564 35,000  Level Cleveland Center
10:20PM 40.8378 -79.5319 38° Northeast 490 564 35,000  Level Cleveland Center
10:21PM 40.9472 -79.4175 38° Northeast 490 564 35,000  Level Cleveland Center
10:22PM 41.0544 -79.3056 38° Northeast 490 564 35,000  Level Cleveland Center
10:23PM 41.1594 -79.1931 39° Northeast 490 564 35,000  Level Cleveland Center
10:24PM 41.2686 -79.0803 38° Northeast 490 564 35,000  Level Cleveland Center
10:25PM 41.3775 -78.9644 39° Northeast 490 564 35,000  Level Cleveland Center
10:26PM 41.4842 -78.8508 39° Northeast 490 564 35,000  Level Cleveland Center
10:27PM 41.5886 -78.7369 39° Northeast 490 564 35,000  Level Cleveland Center
10:28PM 41.6953 -78.6225 39° Northeast 490 564 35,000  Level Cleveland Center
10:29PM 41.8017 -78.5053 39° Northeast 490 564 35,000  Level Cleveland Center
10:30PM 41.9058 -78.3931 39° Northeast 490 564 35,000  Level Cleveland Center
10:31PM 42.0119 -78.2775 39° Northeast 490 564 35,000  Level Cleveland Center
10:32PM 42.1303 -78.1500 39° Northeast 490 564 35,000  Level Cleveland Center
10:33PM 42.2342 -78.0339 40° Northeast 490 564 35,000  Level Cleveland Center
10:34PM 42.3397 -77.9200 39° Northeast 485 558 35,000  Level Cleveland Center
10:35PM 42.4433 -77.8061 39° Northeast 485 558 35,000  Level Cleveland Center
10:36PM 42.5511 -77.6886 39° Northeast 485 558 35,000  Level Cleveland Center
10:37PM 42.6544 -77.5736 39° Northeast 485 558 35,000  Level Cleveland Center
10:38PM 42.7494 -77.4617 41° Northeast 485 558 35,000  Level Cleveland Center
10:39PM 42.8525 -77.3431 40° Northeast 485 558 35,000  Level Cleveland Center
10:41PM 43.0439 -77.1286 39° Northeast 487 560 35,000  Level Boston Center
10:42PM 43.1467 -77.0111 40° Northeast 487 560 35,000  Level Boston Center
10:43PM 43.2514 -76.8906 40° Northeast 487 560 35,000  Level Boston Center
10:44PM 43.3542 -76.7697 41° Northeast 487 560 35,000  Level Boston Center
10:45PM 43.4500 -76.6333 46° Northeast 470 541 35,000  Level Montreal Center
10:46PM 43.5500 -76.5167 40° Northeast 480 552 35,000  Level Montreal Center
10:47PM 43.6667 -76.4000 36° Northeast 480 552 35,000 -480 Level Montreal Center
10:48PM 43.7783 -76.2794 38° Northeast 482 555 34,100 -1,260 Descending Boston Center
10:49PM 43.8803 -76.1561 41° Northeast 482 555 32,500 -1,560 Descending Boston Center
10:50PM 43.9861 -76.0386 39° Northeast 476 548 31,000 -1,500 Descending Boston Center
10:51PM 44.1017 -75.9386 32° Northeast 481 554 29,500 -1,500 Descending Boston Center
10:52PM 44.2133 -75.8350 34° Northeast 481 554 28,000 -780 Descending Boston Center
10:53PM 44.3244 -75.7369 32° Northeast 475 547 28,000  Level Boston Center
10:54PM 44.4122 -75.6547 34° Northeast 475 547 28,000  Level Boston Center
10:55PM 44.5342 -75.5447 33° Northeast 470 541 28,000  Level Boston Center
10:56PM 44.6333 -75.4333 39° Northeast 470 541 28,000  Level Montreal Center
10:57PM 44.7333 -75.3167 40° Northeast 470 541 28,000  Level Montreal Center
10:58PM 44.8000 -75.1500 61° Northeast 490 564 28,000 -480 Level Montreal Center
10:59PM 44.9000 -75.0167 43° Northeast 480 552 27,100 -2,100 Descending Montreal Center
11:01PM 45.0500 -74.7667 50° Northeast 430 495 21,800 -2,640 Descending Montreal Center
11:02PM 45.1167 -74.6167 58° Northeast 420 483 19,200 -2,520 Descending Montreal Center
11:03PM 45.1833 -74.4500 60° Northeast 440 506 16,800 -2,340 Descending Montreal Center
11:04PM 45.2333 -74.3333 59° Northeast 420 483 14,600 -2,100 Descending Montreal Center
11:05PM 45.3000 -74.1833 58° Northeast 410 472 12,700 -1,800 Descending Montreal Center
11:06PM 45.3500 -74.0333 65° Northeast 390 449 11,000 -1,560 Descending Montreal Center
11:07PM 45.4167 -73.9667 35° Northeast 340 391 9,600 -1,500 Descending Montreal Center
11:08PM 45.4833 -73.8667 46° Northeast 300 345 8,100 -1,680 Descending Montreal Center
11:09PM 45.5333 -73.7833 49° Northeast 280 322 6,300 -1,740 Descending Montreal Center
11:10PM 45.6000 -73.7167 35° Northeast 260 299 4,700 -1,620 Descending Montreal Center
11:11PM 45.6500 -73.6667 35° Northeast 220 253 3,100 -900 Descending Montreal Center
11:12PM 45.6500 -73.6000 90° East 210 242 3,000 -60 Descending Montreal Center
11:13PM 45.6167 -73.5500 134° Southeast 170 196 3,000 -60 Level Montreal Center
11:14PM 45.5667 -73.6000 215° Southwest 180 207 2,900 -120 Descending Montreal Center